Time;durP1;ratioP1;P1;durP2;ratioP2;P2;SDS_P1;SDS_P2;PMS_P1;PMS_P2;Temp;Humidity;BMP_temperature;BMP_pressure;BME280_temperature;BME280_humidity;BME280_pressure;Samples;Min_cycle;Max_cycle;Signal;HPM_P1;HPM_P2
2024/01/05 00:01:28;;;;;;;13.13;8.87;;;3.60;99.90;;;;;;5031620;28;20077;-82
2024/01/05 00:03:53;;;;;;;16.67;9.60;;;3.60;99.90;;;;;;4994850;28;20069;-82
2024/01/05 00:06:19;;;;;;;12.77;9.47;;;3.60;99.90;;;;;;4996252;28;20045;-82
2024/01/05 00:08:45;;;;;;;12.67;9.13;;;3.60;99.90;;;;;;5013389;28;20257;-81
2024/01/05 00:11:20;;;;;;;12.07;8.87;;;3.60;99.90;;;;;;5005925;28;20575;-81
2024/01/05 00:13:46;;;;;;;16.13;9.00;;;3.60;99.90;;;;;;5008301;28;20037;-82
2024/01/05 00:16:22;;;;;;;13.57;9.07;;;3.60;99.90;;;;;;5031235;28;20034;-81
2024/01/05 00:18:49;;;;;;;17.10;9.70;;;3.60;99.90;;;;;;5014402;28;20045;-81
2024/01/05 00:21:33;;;;;;;13.33;8.87;;;3.60;99.90;;;;;;4998925;28;20071;-81
2024/01/05 00:23:58;;;;;;;13.37;9.53;;;3.60;99.90;;;;;;5021471;28;20045;-82
2024/01/05 00:26:25;;;;;;;19.73;9.70;;;3.60;99.90;;;;;;4991909;28;20044;-81
2024/01/05 00:28:51;;;;;;;24.33;14.63;;;3.60;99.90;;;;;;5030989;28;20089;-82
2024/01/05 00:31:17;;;;;;;12.67;8.43;;;3.60;99.90;;;;;;5031707;28;20046;-82
2024/01/05 00:33:44;;;;;;;12.73;8.57;;;3.60;99.90;;;;;;5018402;28;20123;-82
2024/01/05 00:36:10;;;;;;;13.90;9.17;;;3.60;99.90;;;;;;5013752;28;20072;-82
2024/01/05 00:38:37;;;;;;;15.87;9.63;;;3.60;99.90;;;;;;5011210;28;20579;-82
2024/01/05 00:41:03;;;;;;;15.20;8.87;;;3.60;99.90;;;;;;5010232;28;20520;-82
2024/01/05 00:43:29;;;;;;;16.70;9.70;;;3.60;99.90;;;;;;5025721;28;20045;-81
2024/01/05 00:45:55;;;;;;;15.07;9.87;;;3.60;99.90;;;;;;5006592;28;20068;-82
2024/01/05 00:48:22;;;;;;;17.00;9.50;;;3.60;99.90;;;;;;5032128;28;20116;-81
2024/01/05 00:50:47;;;;;;;15.67;9.30;;;3.60;99.90;;;;;;5008554;28;20045;-81
2024/01/05 00:53:13;;;;;;;16.17;10.27;;;3.60;99.90;;;;;;5012982;28;20033;-82
2024/01/05 00:55:39;;;;;;;15.20;9.90;;;3.60;99.90;;;;;;5015903;28;20103;-81
2024/01/05 00:58:05;;;;;;;13.53;9.33;;;3.60;99.90;;;;;;5010380;28;20403;-81
2024/01/05 01:00:31;;;;;;;16.30;11.03;;;3.60;99.90;;;;;;5008039;28;20401;-82
2024/01/05 01:02:57;;;;;;;16.80;10.90;;;3.60;99.90;;;;;;5028220;28;20148;-81
2024/01/05 01:05:22;;;;;;;16.70;10.73;;;3.60;99.90;;;;;;5014925;28;20144;-82
2024/01/05 01:07:48;;;;;;;21.57;12.07;;;3.60;99.90;;;;;;5027061;28;20041;-81
2024/01/05 01:10:14;;;;;;;16.97;11.70;;;3.60;99.90;;;;;;5009044;28;20030;-81
2024/01/05 01:12:40;;;;;;;21.87;12.47;;;3.60;99.90;;;;;;5026802;28;20041;-82
2024/01/05 01:15:06;;;;;;;17.50;12.50;;;3.60;99.90;;;;;;5011280;28;20037;-81
2024/01/05 01:17:32;;;;;;;19.80;12.80;;;3.50;99.90;;;;;;4997391;28;20107;-81
2024/01/05 01:19:58;;;;;;;21.77;13.03;;;3.50;99.90;;;;;;4991619;28;20054;-82
2024/01/05 01:22:24;;;;;;;19.07;12.87;;;3.60;99.90;;;;;;5018646;28;20122;-81
2024/01/05 01:24:50;;;;;;;17.97;12.27;;;3.50;99.90;;;;;;5019118;28;20088;-81
2024/01/05 01:27:16;;;;;;;21.53;13.27;;;3.50;99.90;;;;;;4992829;28;20086;-81
2024/01/05 01:29:42;;;;;;;18.80;12.90;;;3.50;99.90;;;;;;5023883;28;20565;-81
2024/01/05 01:32:11;;;;;;;25.67;13.07;;;3.50;99.90;;;;;;5014783;28;20080;-81
2024/01/05 01:34:39;;;;;;;17.70;12.43;;;3.50;99.90;;;;;;4996002;28;20128;-82
2024/01/05 01:37:05;;;;;;;20.70;12.77;;;3.60;99.90;;;;;;5028129;28;20048;-81
2024/01/05 01:39:30;;;;;;;18.03;11.77;;;3.50;99.90;;;;;;5026638;28;20046;-81
2024/01/05 01:41:57;;;;;;;19.67;11.00;;;3.60;99.90;;;;;;5007997;28;20099;-82
2024/01/05 01:44:22;;;;;;;17.47;10.67;;;3.50;99.90;;;;;;5006480;28;20041;-81
2024/01/05 01:46:50;;;;;;;18.57;10.93;;;3.60;99.90;;;;;;5009622;28;20041;-82
2024/01/05 01:49:16;;;;;;;16.20;10.37;;;3.50;99.90;;;;;;5020675;28;20115;-82
2024/01/05 01:51:43;;;;;;;19.90;10.97;;;3.50;99.90;;;;;;5020685;28;20072;-81
2024/01/05 01:54:09;;;;;;;16.97;10.13;;;3.50;99.90;;;;;;5025190;28;20056;-82
2024/01/05 01:56:36;;;;;;;19.67;10.53;;;3.50;99.90;;;;;;5008879;28;20040;-82
2024/01/05 01:59:03;;;;;;;20.43;11.07;;;3.50;99.90;;;;;;5005128;28;20385;-82
2024/01/05 02:01:29;;;;;;;15.97;10.30;;;3.50;99.90;;;;;;5027043;28;20068;-82
2024/01/05 02:03:55;;;;;;;16.63;10.13;;;3.50;99.90;;;;;;5011643;28;20037;-82
2024/01/05 02:06:21;;;;;;;17.73;10.43;;;3.50;99.90;;;;;;5009077;28;20095;-82
2024/01/05 02:08:47;;;;;;;18.00;10.73;;;3.50;99.90;;;;;;5026576;28;20516;-82
2024/01/05 02:11:16;;;;;;;18.07;10.60;;;3.50;99.90;;;;;;5005539;28;20049;-82
2024/01/05 02:13:42;;;;;;;20.87;11.80;;;3.40;99.90;;;;;;4990881;28;20076;-82
2024/01/05 02:16:08;;;;;;;18.57;10.90;;;3.50;99.90;;;;;;4986985;28;20037;-82
2024/01/05 02:18:34;;;;;;;17.47;10.50;;;3.50;99.90;;;;;;5011102;28;20034;-82
2024/01/05 02:21:02;;;;;;;21.77;11.97;;;3.40;99.90;;;;;;5005992;28;20115;-82
2024/01/05 02:23:29;;;;;;;20.07;11.30;;;3.50;99.90;;;;;;4999288;28;20037;-84
2024/01/05 02:25:55;;;;;;;19.23;11.70;;;3.40;99.90;;;;;;5026405;28;20041;-82
2024/01/05 02:28:21;;;;;;;21.23;11.50;;;3.40;99.90;;;;;;5025982;28;20046;-82
2024/01/05 02:30:47;;;;;;;19.80;11.30;;;3.40;99.90;;;;;;5021615;28;20400;-83
2024/01/05 02:33:13;;;;;;;19.13;11.67;;;3.40;99.90;;;;;;5007265;28;20528;-82
2024/01/05 02:35:39;;;;;;;23.40;12.17;;;3.40;99.90;;;;;;5011833;28;20045;-83
2024/01/05 02:38:05;;;;;;;22.03;12.43;;;3.40;99.90;;;;;;5006587;28;20042;-83
2024/01/05 02:40:31;;;;;;;24.07;12.53;;;3.40;99.90;;;;;;5029993;28;20050;-82
2024/01/05 02:42:57;;;;;;;19.13;12.83;;;3.40;99.90;;;;;;4985458;28;20037;-86
2024/01/05 02:45:24;;;;;;;22.23;13.10;;;3.40;99.90;;;;;;5024973;28;20045;-83
2024/01/05 02:47:52;;;;;;;23.47;13.27;;;3.40;99.90;;;;;;5012062;28;20037;-83
2024/01/05 02:50:19;;;;;;;22.43;13.00;;;3.40;99.90;;;;;;5026155;28;20069;-82
2024/01/05 02:52:45;;;;;;;28.40;14.53;;;3.40;99.90;;;;;;5004221;28;20113;-82
2024/01/05 02:55:12;;;;;;;23.50;13.43;;;3.30;99.90;;;;;;5004197;28;20038;-82
2024/01/05 02:57:38;;;;;;;25.67;14.37;;;3.40;99.90;;;;;;5020860;28;20053;-83
2024/01/05 03:00:05;;;;;;;22.53;14.00;;;3.30;99.90;;;;;;5009532;28;20086;-83
2024/01/05 03:02:31;;;;;;;24.27;13.67;;;3.40;99.90;;;;;;4981772;28;20061;-83
2024/01/05 03:04:57;;;;;;;25.57;14.10;;;3.40;99.90;;;;;;5002528;28;20060;-83
2024/01/05 03:07:23;;;;;;;25.83;14.00;;;3.40;99.90;;;;;;5023675;28;21340;-84
2024/01/05 03:09:49;;;;;;;22.80;13.50;;;3.40;99.90;;;;;;5021768;28;20501;-84
2024/01/05 03:12:15;;;;;;;27.43;14.50;;;3.40;99.90;;;;;;5012769;28;20446;-82
2024/01/05 03:14:41;;;;;;;24.60;13.73;;;3.40;99.90;;;;;;4998804;28;20045;-84
2024/01/05 03:17:07;;;;;;;24.33;14.20;;;3.40;99.90;;;;;;4987864;28;20044;-88
2024/01/05 03:19:33;;;;;;;22.10;14.27;;;3.40;99.90;;;;;;5009606;28;20072;-84
2024/01/05 03:21:58;;;;;;;24.50;14.80;;;3.40;99.90;;;;;;5002819;28;20075;-86
2024/01/05 03:24:24;;;;;;;25.07;14.83;;;3.40;99.90;;;;;;4974765;28;20398;-86
2024/01/05 03:26:50;;;;;;;26.33;15.33;;;3.40;99.90;;;;;;5007776;28;20041;-85
2024/01/05 03:29:15;;;;;;;23.40;14.33;;;3.40;99.90;;;;;;5003858;28;20081;-86
2024/01/05 03:31:48;;;;;;;22.47;14.70;;;3.40;99.90;;;;;;4979370;28;20045;-86
2024/01/05 03:34:14;;;;;;;25.90;14.43;;;3.50;99.90;;;;;;5004300;28;20075;-84
2024/01/05 03:36:40;;;;;;;24.50;13.77;;;3.50;99.90;;;;;;5007661;28;20037;-85
2024/01/05 03:39:07;;;;;;;26.13;14.37;;;3.50;99.90;;;;;;5009987;28;20045;-84
2024/01/05 03:41:33;;;;;;;25.77;14.73;;;3.40;99.90;;;;;;5005343;28;20088;-85
2024/01/05 03:43:59;;;;;;;22.63;13.63;;;3.50;99.90;;;;;;5003588;28;20056;-86
2024/01/05 03:46:25;;;;;;;28.53;15.30;;;3.40;99.90;;;;;;4989100;28;20029;-85
2024/01/05 03:48:51;;;;;;;23.30;14.53;;;3.40;99.90;;;;;;5024938;28;20501;-87
2024/01/05 03:51:16;;;;;;;26.40;14.57;;;3.40;99.90;;;;;;4991465;28;20655;-86
2024/01/05 03:53:42;;;;;;;23.97;14.37;;;3.40;99.90;;;;;;5011696;28;20047;-86
2024/01/05 03:56:10;;;;;;;22.57;14.10;;;3.50;99.90;;;;;;4995663;28;20034;-87
2024/01/05 03:58:36;;;;;;;24.03;13.87;;;3.50;99.90;;;;;;4995463;28;20475;-88
2024/01/05 04:01:02;;;;;;;23.13;13.53;;;3.50;99.90;;;;;;5011885;28;20547;-85
2024/01/05 04:03:28;;;;;;;21.07;13.27;;;3.50;99.90;;;;;;5010516;28;20396;-87
2024/01/05 04:05:54;;;;;;;20.83;13.57;;;3.50;99.90;;;;;;5008289;28;20041;-86
2024/01/05 04:08:20;;;;;;;26.13;13.90;;;3.50;99.90;;;;;;5006911;28;20033;-84
2024/01/05 04:10:46;;;;;;;22.20;14.10;;;3.50;99.90;;;;;;5020397;28;20040;-87
2024/01/05 04:13:12;;;;;;;20.63;12.47;;;3.40;99.90;;;;;;5007263;28;20034;-87
2024/01/05 04:15:39;;;;;;;20.63;13.13;;;3.50;99.90;;;;;;5024267;28;20553;-87
2024/01/05 04:18:05;;;;;;;22.40;12.97;;;3.50;99.90;;;;;;5008651;28;20041;-86
2024/01/05 04:20:31;;;;;;;20.23;13.20;;;3.50;99.90;;;;;;5025112;28;20099;-87
2024/01/05 04:22:58;;;;;;;19.00;12.37;;;3.50;99.90;;;;;;5006996;28;20402;-87
2024/01/05 04:25:24;;;;;;;18.47;12.50;;;3.50;99.90;;;;;;5008206;28;20033;-87
2024/01/05 04:27:49;;;;;;;19.47;12.50;;;3.50;99.90;;;;;;5003957;28;20063;-87
2024/01/05 04:30:16;;;;;;;19.07;12.43;;;3.50;99.90;;;;;;4990085;28;20136;-86
2024/01/05 04:32:43;;;;;;;19.37;12.70;;;3.60;99.90;;;;;;4985038;28;20038;-87
2024/01/05 04:35:09;;;;;;;20.57;12.43;;;3.60;99.90;;;;;;5005581;28;20148;-86
2024/01/05 04:37:35;;;;;;;18.50;12.30;;;3.60;99.90;;;;;;4992360;28;20046;-87
2024/01/05 04:40:01;;;;;;;19.03;12.53;;;3.60;99.90;;;;;;5026270;28;20042;-83
2024/01/05 04:42:27;;;;;;;19.47;12.87;;;3.60;99.90;;;;;;5006836;28;20052;-87
2024/01/05 04:44:53;;;;;;;19.57;12.63;;;3.60;99.90;;;;;;5026409;28;20516;-86
2024/01/05 04:47:18;;;;;;;19.70;12.57;;;3.60;99.90;;;;;;5010961;28;20041;-86
2024/01/05 04:49:44;;;;;;;19.10;12.87;;;3.60;99.90;;;;;;5029308;28;20493;-86
2024/01/05 04:52:10;;;;;;;19.27;12.70;;;3.60;99.90;;;;;;5012111;28;20037;-86
2024/01/05 04:54:36;;;;;;;21.50;13.90;;;3.70;99.90;;;;;;5011016;28;20128;-87
2024/01/05 04:57:02;;;;;;;20.10;13.57;;;3.60;99.90;;;;;;5012053;28;20038;-87
2024/01/05 04:59:30;;;;;;;22.53;13.27;;;3.60;99.90;;;;;;5015899;28;20144;-86
2024/01/05 05:01:56;;;;;;;21.53;14.03;;;3.70;99.90;;;;;;4999887;28;20119;-86
2024/01/05 05:04:22;;;;;;;20.13;13.43;;;3.70;99.90;;;;;;4995145;28;20037;-86
2024/01/05 05:06:47;;;;;;;19.57;13.27;;;3.70;99.90;;;;;;5006016;28;20055;-85
2024/01/05 05:09:13;;;;;;;22.27;14.03;;;3.70;99.90;;;;;;5007783;28;20787;-87
2024/01/05 05:11:40;;;;;;;22.77;14.47;;;3.70;99.90;;;;;;4988761;28;20045;-87
2024/01/05 05:14:05;;;;;;;22.60;14.20;;;3.70;99.90;;;;;;5013074;28;20037;-86
2024/01/05 05:16:32;;;;;;;23.97;14.47;;;3.70;99.90;;;;;;5007190;28;20528;-87
2024/01/05 05:18:57;;;;;;;22.63;14.23;;;3.70;99.90;;;;;;5011628;28;20075;-88
2024/01/05 05:21:25;;;;;;;20.50;14.47;;;3.70;99.90;;;;;;5011866;28;20049;-87
2024/01/05 05:23:51;;;;;;;23.40;14.57;;;3.70;99.90;;;;;;5027210;28;20117;-87
2024/01/05 05:26:16;;;;;;;22.07;14.33;;;3.70;99.90;;;;;;5020255;28;20138;-87
2024/01/05 05:28:42;;;;;;;20.67;14.23;;;3.70;99.90;;;;;;4977822;28;20108;-84
2024/01/05 05:31:09;;;;;;;22.23;13.57;;;3.80;99.90;;;;;;4992793;28;20037;-87
2024/01/05 05:33:34;;;;;;;20.07;14.33;;;3.80;99.90;;;;;;5007183;28;20069;-86
2024/01/05 05:36:00;;;;;;;25.67;15.30;;;3.80;99.90;;;;;;5007292;28;20077;-85
2024/01/05 05:38:26;;;;;;;19.27;13.70;;;3.80;99.90;;;;;;5008576;28;20038;-86
2024/01/05 05:40:52;;;;;;;21.53;13.80;;;3.80;99.90;;;;;;5011462;28;20152;-85
2024/01/05 05:43:17;;;;;;;21.13;14.33;;;3.80;99.90;;;;;;4994409;28;20483;-87
2024/01/05 05:45:43;;;;;;;22.60;14.07;;;3.80;99.90;;;;;;5011321;28;20048;-87
2024/01/05 05:48:10;;;;;;;22.80;14.47;;;3.80;99.90;;;;;;5029832;28;20037;-87
2024/01/05 05:50:36;;;;;;;23.03;14.70;;;3.80;99.90;;;;;;4997795;28;20038;-86
2024/01/05 05:53:03;;;;;;;22.73;14.13;;;3.80;99.90;;;;;;5010225;28;20132;-86
2024/01/05 05:55:29;;;;;;;22.70;14.80;;;3.80;99.90;;;;;;4994743;28;20373;-88
2024/01/05 05:57:57;;;;;;;21.50;13.53;;;3.80;99.90;;;;;;5022531;28;20034;-85
2024/01/05 06:00:24;;;;;;;20.27;13.63;;;3.80;99.90;;;;;;5008671;28;20046;-87
2024/01/05 06:02:49;;;;;;;22.37;14.07;;;3.90;99.90;;;;;;5011780;28;20116;-87
2024/01/05 06:05:15;;;;;;;22.13;13.90;;;3.80;99.90;;;;;;5026506;28;20124;-86
2024/01/05 06:07:41;;;;;;;20.93;13.60;;;3.80;99.90;;;;;;5012159;28;20528;-87
2024/01/05 06:10:07;;;;;;;22.83;13.80;;;3.90;99.90;;;;;;5012898;28;20049;-88
2024/01/05 06:12:33;;;;;;;22.43;14.20;;;3.90;99.90;;;;;;5014068;28;20037;-87
2024/01/05 06:14:59;;;;;;;21.43;14.50;;;3.90;99.90;;;;;;5009712;28;20060;-85
2024/01/05 06:17:25;;;;;;;23.10;14.83;;;3.90;99.90;;;;;;5003013;28;20049;-87
2024/01/05 06:19:51;;;;;;;23.30;14.57;;;3.90;99.90;;;;;;5006177;28;20421;-86
2024/01/05 06:22:17;;;;;;;23.53;14.50;;;3.90;99.90;;;;;;5002861;28;20109;-86
2024/01/05 06:24:44;;;;;;;24.33;15.43;;;3.90;99.90;;;;;;5004752;28;20046;-86
2024/01/05 06:27:11;;;;;;;24.53;14.97;;;3.90;99.90;;;;;;5021648;28;20076;-86
2024/01/05 06:29:37;;;;;;;24.07;15.43;;;3.90;99.90;;;;;;5013002;28;20045;-86
2024/01/05 06:32:03;;;;;;;25.10;15.83;;;4.00;99.90;;;;;;4992304;28;20408;-87
2024/01/05 06:34:29;;;;;;;23.20;15.90;;;3.90;99.90;;;;;;4985240;28;20676;-86
2024/01/05 06:36:54;;;;;;;23.97;15.83;;;4.00;99.90;;;;;;5005487;28;20047;-87
2024/01/05 06:39:20;;;;;;;28.33;16.93;;;4.00;99.90;;;;;;5019965;28;20445;-87
2024/01/05 06:41:46;;;;;;;24.57;15.93;;;4.00;99.90;;;;;;5024689;28;20574;-87
2024/01/05 06:44:12;;;;;;;26.63;16.50;;;4.00;99.90;;;;;;5006399;28;20544;-86
2024/01/05 06:46:37;;;;;;;27.73;17.10;;;4.00;99.90;;;;;;4985957;28;20103;-87
2024/01/05 06:49:03;;;;;;;26.73;17.03;;;4.00;99.90;;;;;;5012330;28;20040;-86
2024/01/05 06:51:35;;;;;;;30.30;17.63;;;4.00;99.90;;;;;;4998291;28;20029;-86
2024/01/05 06:54:01;;;;;;;30.20;17.40;;;4.10;99.90;;;;;;5023174;28;20044;-87
2024/01/05 06:56:31;;;;;;;28.83;19.27;;;4.10;99.90;;;;;;5004163;28;20069;-87
2024/01/05 06:58:58;;;;;;;31.77;19.23;;;4.10;99.90;;;;;;4987671;28;20076;-86
2024/01/05 07:01:23;;;;;;;32.60;19.73;;;4.10;99.90;;;;;;5003123;28;20041;-86
2024/01/05 07:03:49;;;;;;;31.33;19.13;;;4.10;99.90;;;;;;5008500;28;20044;-86
2024/01/05 07:06:16;;;;;;;31.77;19.03;;;4.10;99.90;;;;;;5025654;28;20475;-87
2024/01/05 07:08:41;;;;;;;34.63;20.20;;;4.10;99.90;;;;;;5006266;28;20046;-87
2024/01/05 07:11:09;;;;;;;34.07;20.63;;;4.20;99.90;;;;;;5023804;28;20052;-86
2024/01/05 07:13:35;;;;;;;34.40;20.03;;;4.20;99.90;;;;;;5023299;28;20048;-86
2024/01/05 07:16:01;;;;;;;34.57;21.73;;;4.20;99.90;;;;;;4998424;28;20030;-86
2024/01/05 07:18:26;;;;;;;32.77;20.73;;;4.20;99.90;;;;;;5006449;28;20045;-89
2024/01/05 07:20:52;;;;;;;39.23;22.47;;;4.20;99.90;;;;;;5003068;28;20068;-85
2024/01/05 07:23:18;;;;;;;37.03;22.57;;;4.20;99.90;;;;;;5006004;28;20128;-86
2024/01/05 07:25:44;;;;;;;38.70;22.97;;;4.20;99.90;;;;;;5004436;28;20771;-84
2024/01/05 07:28:09;;;;;;;41.13;23.90;;;4.20;99.90;;;;;;5019245;28;20050;-88
2024/01/05 07:30:35;;;;;;;39.10;22.93;;;4.20;99.90;;;;;;5011045;28;20041;-86
2024/01/05 07:33:01;;;;;;;41.53;23.07;;;4.30;99.90;;;;;;4972624;28;20037;-83
2024/01/05 07:35:27;;;;;;;41.83;23.77;;;4.30;99.90;;;;;;5002729;28;20040;-84
2024/01/05 07:37:53;;;;;;;44.67;23.97;;;4.30;99.90;;;;;;4990199;28;20099;-87
2024/01/05 07:40:19;;;;;;;46.03;24.97;;;4.30;99.90;;;;;;5010268;28;20408;-84
2024/01/05 07:42:44;;;;;;;45.93;24.47;;;4.30;99.90;;;;;;4998419;28;20042;-83
2024/01/05 07:45:10;;;;;;;40.23;24.53;;;4.30;99.90;;;;;;5006179;28;20106;-84
2024/01/05 07:47:36;;;;;;;42.93;24.63;;;4.40;99.90;;;;;;5007526;28;20045;-83
2024/01/05 07:50:03;;;;;;;41.97;24.50;;;4.40;99.90;;;;;;4999356;28;20884;-84
2024/01/05 07:52:28;;;;;;;44.37;24.10;;;4.40;99.90;;;;;;5001865;28;20507;-84
2024/01/05 07:54:54;;;;;;;40.97;23.90;;;4.50;99.90;;;;;;5006120;28;20042;-84
2024/01/05 07:57:20;;;;;;;43.43;24.83;;;4.40;99.90;;;;;;5027074;28;20033;-83
2024/01/05 07:59:45;;;;;;;40.60;23.63;;;4.40;99.90;;;;;;4994907;28;20211;-83
2024/01/05 08:02:11;;;;;;;42.43;25.33;;;4.40;99.90;;;;;;5009009;28;20045;-83
2024/01/05 08:04:37;;;;;;;39.43;24.50;;;4.40;99.90;;;;;;5007304;28;20081;-84
2024/01/05 08:07:02;;;;;;;39.17;23.70;;;4.40;99.90;;;;;;4993309;28;20037;-85
2024/01/05 08:09:28;;;;;;;40.63;23.53;;;4.50;99.90;;;;;;4995862;28;20037;-84
2024/01/05 08:11:54;;;;;;;40.63;24.53;;;4.50;99.90;;;;;;4998117;28;20444;-84
2024/01/05 08:14:19;;;;;;;45.63;25.30;;;4.50;99.90;;;;;;5007432;28;20045;-84
2024/01/05 08:16:45;;;;;;;41.40;24.30;;;4.50;99.90;;;;;;4996176;28;20074;-84
2024/01/05 08:19:13;;;;;;;40.43;23.77;;;4.60;99.90;;;;;;4978938;28;20068;-84
2024/01/05 08:21:39;;;;;;;40.43;24.80;;;4.60;99.90;;;;;;5013420;28;20061;-84
2024/01/05 08:24:04;;;;;;;38.40;24.10;;;4.60;99.90;;;;;;5008153;28;20096;-83
2024/01/05 08:26:30;;;;;;;36.97;23.77;;;4.60;99.90;;;;;;4996222;28;20833;-83
2024/01/05 08:28:56;;;;;;;40.00;24.70;;;4.70;99.90;;;;;;4989726;28;20685;-83
2024/01/05 08:31:22;;;;;;;40.07;23.97;;;4.70;99.90;;;;;;5005538;28;20041;-82
2024/01/05 08:33:47;;;;;;;44.17;24.23;;;4.70;99.90;;;;;;5030558;28;20049;-84
2024/01/05 08:36:13;;;;;;;41.23;23.97;;;4.70;99.90;;;;;;5007732;28;20065;-82
2024/01/05 08:38:39;;;;;;;38.00;23.10;;;4.70;99.90;;;;;;4996643;28;20448;-83
2024/01/05 08:41:04;;;;;;;41.67;24.77;;;4.70;99.90;;;;;;4996323;28;20066;-83
2024/01/05 08:43:30;;;;;;;42.13;23.67;;;4.80;99.90;;;;;;4996311;28;20096;-84
2024/01/05 08:45:56;;;;;;;42.30;24.33;;;4.80;99.90;;;;;;4982662;28;20098;-85
2024/01/05 08:48:21;;;;;;;47.40;24.30;;;4.80;99.90;;;;;;5012479;28;20041;-84
2024/01/05 08:50:47;;;;;;;41.27;22.93;;;4.80;99.90;;;;;;5015719;28;20041;-84
2024/01/05 08:53:13;;;;;;;47.00;25.27;;;4.90;99.90;;;;;;4995509;28;20117;-87
2024/01/05 08:55:38;;;;;;;41.60;24.17;;;4.90;99.90;;;;;;5021879;28;20042;-85
2024/01/05 08:58:05;;;;;;;38.30;22.47;;;4.90;99.90;;;;;;5009531;28;20478;-87
2024/01/05 09:00:31;;;;;;;40.57;24.53;;;4.90;99.90;;;;;;5024488;28;20041;-84
2024/01/05 09:02:57;;;;;;;43.77;24.37;;;4.90;99.90;;;;;;5026203;28;20068;-86
2024/01/05 09:05:22;;;;;;;39.33;23.00;;;4.90;99.90;;;;;;5005484;28;20045;-85
2024/01/05 09:07:48;;;;;;;39.93;23.50;;;4.90;99.90;;;;;;4997491;28;20513;-85
2024/01/05 09:10:14;;;;;;;45.53;24.87;;;5.00;99.90;;;;;;5011475;28;20172;-85
2024/01/05 09:12:40;;;;;;;41.07;23.13;;;4.90;99.90;;;;;;4995193;28;20061;-86
2024/01/05 09:15:07;;;;;;;43.83;27.00;;;5.00;99.90;;;;;;4994153;28;20037;-85
2024/01/05 09:17:33;;;;;;;42.87;27.80;;;5.00;99.90;;;;;;4994030;28;20091;-87
2024/01/05 09:19:59;;;;;;;41.57;22.67;;;5.00;99.90;;;;;;4997776;28;20058;-87
2024/01/05 09:22:25;;;;;;;41.40;25.13;;;5.00;99.90;;;;;;5006118;28;20393;-87
2024/01/05 09:24:51;;;;;;;42.27;24.20;;;5.00;99.90;;;;;;5010411;28;20038;-85
2024/01/05 09:27:16;;;;;;;40.43;23.77;;;5.00;99.90;;;;;;5014379;28;20571;-86
2024/01/05 09:29:42;;;;;;;38.47;22.43;;;5.00;99.90;;;;;;4998314;28;20100;-87
2024/01/05 09:32:08;;;;;;;42.07;22.13;;;5.00;99.90;;;;;;4994116;28;20865;-86
2024/01/05 09:34:34;;;;;;;39.90;23.37;;;5.00;99.90;;;;;;5015275;28;20053;-85
2024/01/05 09:36:59;;;;;;;44.10;24.83;;;5.10;99.90;;;;;;5012382;28;20683;-85
2024/01/05 09:39:25;;;;;;;36.87;23.13;;;5.10;99.90;;;;;;4981530;28;20034;-86
2024/01/05 09:41:51;;;;;;;34.37;21.90;;;5.10;99.90;;;;;;4996320;28;20080;-85
2024/01/05 09:44:17;;;;;;;42.53;26.17;;;5.10;99.90;;;;;;5004684;28;20125;-84
2024/01/05 09:46:44;;;;;;;37.87;21.97;;;5.10;99.90;;;;;;4997304;28;20041;-84
2024/01/05 09:49:13;;;;;;;36.43;21.83;;;5.20;99.90;;;;;;4997361;28;20748;-85
2024/01/05 09:51:39;;;;;;;37.43;21.60;;;5.20;99.90;;;;;;4997499;28;20480;-85
2024/01/05 09:54:06;;;;;;;33.37;19.93;;;5.20;99.90;;;;;;4998876;28;20034;-85
2024/01/05 09:56:31;;;;;;;35.53;21.30;;;5.20;99.90;;;;;;4979545;28;20040;-85
2024/01/05 09:58:58;;;;;;;36.80;21.53;;;5.20;99.90;;;;;;4994264;28;20037;-84
2024/01/05 10:01:26;;;;;;;32.73;20.27;;;5.20;99.90;;;;;;4986785;28;20116;-85
2024/01/05 10:03:56;;;;;;;34.20;21.30;;;5.20;99.90;;;;;;5010055;28;20073;-85
2024/01/05 10:06:22;;;;;;;36.20;21.70;;;5.20;99.90;;;;;;5012928;28;20064;-84
2024/01/05 10:08:56;;;;;;;36.20;21.00;;;5.30;99.90;;;;;;4988170;28;20046;-85
2024/01/05 10:11:31;;;;;;;33.03;21.00;;;5.30;99.90;;;;;;5008993;28;21499;-85
2024/01/05 10:14:00;;;;;;;41.93;21.23;;;5.30;99.90;;;;;;5012494;28;20092;-85
2024/01/05 10:16:34;;;;;;;31.20;20.23;;;5.30;99.90;;;;;;4994855;28;20037;-84
2024/01/05 10:19:15;;;;;;;35.40;20.27;;;5.30;99.90;;;;;;5009739;28;20049;-84
2024/01/05 10:21:43;;;;;;;31.05;19.88;;;5.30;99.90;;;;;;5011802;28;20390;-84
2024/01/05 10:24:21;;;;;;;36.97;20.77;;;5.30;99.90;;;;;;5011980;28;20512;-84
2024/01/05 10:27:04;;;;;;;32.33;20.17;;;5.40;99.90;;;;;;4993387;28;20064;-83
2024/01/05 10:29:30;;;;;;;33.37;19.70;;;5.40;99.90;;;;;;5011076;28;20045;-84
2024/01/05 10:32:16;;;;;;;31.63;20.03;;;5.40;99.90;;;;;;5009642;28;20044;-84
2024/01/05 10:34:47;;;;;;;31.30;19.30;;;5.40;99.90;;;;;;5012104;28;20046;-84
2024/01/05 10:37:14;;;;;;;26.10;17.17;;;5.40;99.90;;;;;;4991425;28;20042;-84
2024/01/05 10:39:53;;;;;;;27.73;16.23;;;5.40;99.90;;;;;;4994252;28;20103;-83
2024/01/05 10:42:20;;;;;;;27.57;17.73;;;5.50;99.90;;;;;;5002623;28;20042;-84
2024/01/05 10:44:47;;;;;;;30.23;17.00;;;5.50;99.90;;;;;;5009228;28;20120;-84
2024/01/05 10:47:17;;;;;;;29.10;17.60;;;5.60;99.90;;;;;;4994842;28;20050;-84
2024/01/05 10:49:50;;;;;;;28.63;16.90;;;5.60;99.90;;;;;;5003777;28;20136;-84
2024/01/05 10:52:18;;;;;;;27.67;17.50;;;5.60;99.90;;;;;;4996048;28;20802;-84
2024/01/05 10:54:48;;;;;;;33.33;18.83;;;5.70;99.90;;;;;;4990959;28;20084;-84
2024/01/05 10:57:16;;;;;;;31.60;17.80;;;5.70;99.90;;;;;;5004183;28;20049;-84
2024/01/05 10:59:46;;;;;;;33.97;18.40;;;5.70;99.90;;;;;;4992549;28;20073;-84
2024/01/05 11:02:46;;;;;;;31.67;18.30;;;5.70;99.90;;;;;;4994348;28;20053;-84
2024/01/05 11:05:13;;;;;;;30.77;17.33;;;5.70;99.90;;;;;;4978928;28;20704;-84
2024/01/05 11:07:41;;;;;;;29.10;17.40;;;5.70;99.90;;;;;;4993598;28;20132;-84
2024/01/05 11:10:31;;;;;;;24.37;16.17;;;5.70;99.90;;;;;;4995050;28;20034;-85
2024/01/05 11:13:23;;;;;;;28.53;16.70;;;5.80;99.90;;;;;;4995784;28;20041;-84
2024/01/05 11:16:08;;;;;;;27.23;16.10;;;5.80;99.90;;;;;;4976558;28;20053;-85
2024/01/05 11:19:05;;;;;;;27.40;16.20;;;5.80;99.90;;;;;;4994881;28;20631;-85
2024/01/05 11:21:38;;;;;;;26.20;15.97;;;5.80;99.90;;;;;;5017309;28;20132;-84
2024/01/05 11:24:05;;;;;;;27.47;16.37;;;5.90;99.90;;;;;;5026482;28;20099;-84
2024/01/05 11:26:42;;;;;;;29.47;16.67;;;5.90;99.90;;;;;;5029581;28;20526;-84
2024/01/05 11:29:12;;;;;;;27.63;15.20;;;5.90;99.90;;;;;;4994014;28;20104;-84
2024/01/05 11:31:47;;;;;;;27.40;15.30;;;5.90;99.90;;;;;;4983922;28;20041;-84
2024/01/05 11:34:34;;;;;;;20.63;13.00;;;6.00;99.90;;;;;;5004940;28;20046;-84
2024/01/05 11:37:08;;;;;;;17.20;11.47;;;6.00;99.90;;;;;;4986179;28;20087;-84
2024/01/05 11:39:49;;;;;;;20.50;13.20;;;6.00;99.90;;;;;;5005785;28;20079;-83
2024/01/05 11:42:24;;;;;;;22.00;14.68;;;6.00;99.90;;;;;;5004326;28;20057;-83
2024/01/05 11:44:51;;;;;;;21.33;14.10;;;6.10;99.90;;;;;;5008176;28;20439;-83
2024/01/05 11:47:43;;;;;;;18.23;11.97;;;6.10;99.90;;;;;;5011392;28;20055;-83
2024/01/05 11:50:32;;;;;;;22.38;13.35;;;6.00;99.90;;;;;;5008718;28;20051;-83
2024/01/05 11:53:10;;;;;;;14.30;10.00;;;6.00;99.90;;;;;;5023888;28;20428;-83
2024/01/05 11:55:40;;;;;;;17.47;11.40;;;6.10;99.90;;;;;;5025503;28;20053;-86
2024/01/05 11:58:13;;;;;;;29.03;18.67;;;6.10;99.90;;;;;;5012564;28;20125;-85
2024/01/05 12:00:43;;;;;;;21.20;15.90;;;6.10;99.90;;;;;;5001559;28;20037;-85
2024/01/05 12:03:09;;;;;;;14.93;10.33;;;6.20;99.90;;;;;;5011766;28;20045;-84
2024/01/05 12:05:34;;;;;;;22.73;13.53;;;6.20;99.90;;;;;;5029686;28;20107;-85
2024/01/05 12:08:00;;;;;;;19.60;12.20;;;6.20;99.90;;;;;;5006155;28;20125;-85
2024/01/05 12:10:27;;;;;;;17.97;13.20;;;6.20;99.90;;;;;;5000797;28;20077;-89
2024/01/05 12:12:57;;;;;;;17.00;11.73;;;6.30;99.90;;;;;;5009820;28;20053;-87
2024/01/05 12:15:24;;;;;;;20.90;12.80;;;6.30;99.90;;;;;;5015064;28;20041;-87
2024/01/05 12:18:00;;;;;;;18.87;12.97;;;6.30;99.90;;;;;;5015709;28;20382;-87
2024/01/05 12:20:26;;;;;;;19.80;13.57;;;6.40;99.90;;;;;;4998962;28;20061;-87
2024/01/05 12:22:52;;;;;;;23.30;12.63;;;6.40;99.90;;;;;;5008615;28;20472;-86
2024/01/05 12:25:18;;;;;;;20.30;13.17;;;6.40;99.90;;;;;;5010240;28;20045;-87
2024/01/05 12:27:43;;;;;;;18.77;11.90;;;6.40;99.90;;;;;;5015046;28;20512;-85
2024/01/05 12:30:10;;;;;;;17.67;11.23;;;6.40;99.90;;;;;;5030865;28;20061;-85
2024/01/05 12:32:36;;;;;;;19.00;12.20;;;6.40;99.90;;;;;;5015118;28;20033;-84
2024/01/05 12:35:03;;;;;;;28.00;15.97;;;6.40;99.90;;;;;;5031444;28;20029;-84
2024/01/05 12:37:30;;;;;;;39.97;21.67;;;6.40;99.90;;;;;;5031675;28;21464;-85
2024/01/05 12:40:12;;;;;;;21.13;13.37;;;6.40;99.90;;;;;;5000454;28;20523;-84